sensor_id;sensor_type;location;lat;lon;timestamp;pressure;altitude;pressure_sealevel;temperature;humidity
9717;BME280;4897;43.570;27.832;2022-12-18T00:02:18;99776.38;;;9.02;100.00
9717;BME280;4897;43.570;27.832;2022-12-18T00:04:45;99780.97;;;9.00;100.00
9717;BME280;4897;43.570;27.832;2022-12-18T00:07:12;99785.22;;;8.90;100.00
9717;BME280;4897;43.570;27.832;2022-12-18T00:09:39;99807.31;;;8.92;100.00
9717;BME280;4897;43.570;27.832;2022-12-18T00:12:07;99757.34;;;8.68;100.00
9717;BME280;4897;43.570;27.832;2022-12-18T00:14:34;99802.94;;;8.91;100.00
9717;BME280;4897;43.570;27.832;2022-12-18T00:17:02;99806.75;;;8.86;100.00
9717;BME280;4897;43.570;27.832;2022-12-18T00:19:28;99790.09;;;8.70;100.00
9717;BME280;4897;43.570;27.832;2022-12-18T00:21:55;99784.31;;;8.64;100.00
9717;BME280;4897;43.570;27.832;2022-12-18T00:24:23;99800.75;;;8.70;100.00
9717;BME280;4897;43.570;27.832;2022-12-18T00:26:50;99830.13;;;8.83;100.00
9717;BME280;4897;43.570;27.832;2022-12-18T00:29:18;99820.41;;;8.82;100.00
9717;BME280;4897;43.570;27.832;2022-12-18T00:31:45;99817.84;;;8.93;100.00
9717;BME280;4897;43.570;27.832;2022-12-18T00:34:12;99810.59;;;8.82;100.00
9717;BME280;4897;43.570;27.832;2022-12-18T00:36:40;99815.84;;;8.84;100.00
9717;BME280;4897;43.570;27.832;2022-12-18T00:39:07;99809.88;;;8.93;100.00
9717;BME280;4897;43.570;27.832;2022-12-18T00:41:34;99795.13;;;8.88;100.00
9717;BME280;4897;43.570;27.832;2022-12-18T00:44:20;99799.09;;;8.95;100.00
9717;BME280;4897;43.570;27.832;2022-12-18T00:46:47;99811.88;;;8.90;100.00
9717;BME280;4897;43.570;27.832;2022-12-18T00:49:15;99788.91;;;8.74;100.00
9717;BME280;4897;43.570;27.832;2022-12-18T00:51:42;99796.72;;;8.77;100.00
9717;BME280;4897;43.570;27.832;2022-12-18T00:54:09;99804.09;;;8.74;100.00
9717;BME280;4897;43.570;27.832;2022-12-18T00:56:36;99817.78;;;8.68;100.00
9717;BME280;4897;43.570;27.832;2022-12-18T00:59:04;99592.00;;;7.40;100.00
9717;BME280;4897;43.570;27.832;2022-12-18T01:01:32;99823.81;;;8.71;100.00
9717;BME280;4897;43.570;27.832;2022-12-18T01:04:00;99818.56;;;8.70;100.00
9717;BME280;4897;43.570;27.832;2022-12-18T01:06:27;99812.16;;;8.72;100.00
9717;BME280;4897;43.570;27.832;2022-12-18T01:08:54;99802.34;;;8.73;100.00
9717;BME280;4897;43.570;27.832;2022-12-18T01:11:21;99804.91;;;8.74;100.00
9717;BME280;4897;43.570;27.832;2022-12-18T01:13:48;99818.41;;;8.85;100.00
9717;BME280;4897;43.570;27.832;2022-12-18T01:16:16;99822.75;;;8.86;100.00
9717;BME280;4897;43.570;27.832;2022-12-18T01:18:45;99822.19;;;8.69;100.00
9717;BME280;4897;43.570;27.832;2022-12-18T01:21:13;99838.88;;;8.85;100.00
9717;BME280;4897;43.570;27.832;2022-12-18T01:23:40;99835.25;;;8.86;100.00
9717;BME280;4897;43.570;27.832;2022-12-18T01:26:09;99838.44;;;8.91;100.00
9717;BME280;4897;43.570;27.832;2022-12-18T01:28:36;99833.78;;;8.95;100.00
9717;BME280;4897;43.570;27.832;2022-12-18T01:31:14;99830.25;;;8.94;100.00
9717;BME280;4897;43.570;27.832;2022-12-18T01:33:41;99822.88;;;8.85;100.00
9717;BME280;4897;43.570;27.832;2022-12-18T01:36:14;99843.25;;;8.86;100.00
9717;BME280;4897;43.570;27.832;2022-12-18T01:38:45;99833.84;;;8.80;100.00
9717;BME280;4897;43.570;27.832;2022-12-18T01:41:13;99822.63;;;8.75;100.00
9717;BME280;4897;43.570;27.832;2022-12-18T01:43:48;99822.81;;;8.72;100.00
9717;BME280;4897;43.570;27.832;2022-12-18T01:46:16;99828.56;;;8.66;100.00
9717;BME280;4897;43.570;27.832;2022-12-18T01:48:44;99810.50;;;8.57;100.00
9717;BME280;4897;43.570;27.832;2022-12-18T01:51:15;99834.88;;;8.65;100.00
9717;BME280;4897;43.570;27.832;2022-12-18T01:53:42;99837.63;;;8.64;100.00
9717;BME280;4897;43.570;27.832;2022-12-18T01:56:13;99832.06;;;8.54;100.00
9717;BME280;4897;43.570;27.832;2022-12-18T01:58:48;99862.69;;;8.61;100.00
9717;BME280;4897;43.570;27.832;2022-12-18T02:01:17;99847.78;;;8.71;100.00
9717;BME280;4897;43.570;27.832;2022-12-18T02:03:44;99849.91;;;8.66;100.00
9717;BME280;4897;43.570;27.832;2022-12-18T02:06:16;99832.63;;;8.59;100.00
9717;BME280;4897;43.570;27.832;2022-12-18T02:08:52;99853.53;;;8.65;100.00
9717;BME280;4897;43.570;27.832;2022-12-18T02:11:32;99846.06;;;8.70;100.00
9717;BME280;4897;43.570;27.832;2022-12-18T02:14:09;99839.22;;;8.66;100.00
9717;BME280;4897;43.570;27.832;2022-12-18T02:16:41;99611.88;;;7.34;100.00
9717;BME280;4897;43.570;27.832;2022-12-18T02:19:21;99861.88;;;8.73;100.00
9717;BME280;4897;43.570;27.832;2022-12-18T02:21:57;99871.63;;;8.60;100.00
9717;BME280;4897;43.570;27.832;2022-12-18T02:24:36;99840.19;;;8.25;100.00
9717;BME280;4897;43.570;27.832;2022-12-18T02:27:09;99872.84;;;8.28;100.00
9717;BME280;4897;43.570;27.832;2022-12-18T02:29:39;99849.22;;;8.22;100.00
9717;BME280;4897;43.570;27.832;2022-12-18T02:32:10;99862.19;;;8.14;100.00
9717;BME280;4897;43.570;27.832;2022-12-18T02:34:41;99858.78;;;8.12;100.00
9717;BME280;4897;43.570;27.832;2022-12-18T02:37:12;99824.66;;;7.76;100.00
9717;BME280;4897;43.570;27.832;2022-12-18T02:39:42;99869.44;;;8.12;100.00
9717;BME280;4897;43.570;27.832;2022-12-18T02:42:11;99841.03;;;7.98;100.00
9717;BME280;4897;43.570;27.832;2022-12-18T02:44:42;99867.13;;;8.20;100.00
9717;BME280;4897;43.570;27.832;2022-12-18T02:47:10;99875.03;;;8.22;100.00
9717;BME280;4897;43.570;27.832;2022-12-18T02:49:46;99839.38;;;8.10;100.00
9717;BME280;4897;43.570;27.832;2022-12-18T02:52:19;99794.00;;;7.57;100.00
9717;BME280;4897;43.570;27.832;2022-12-18T02:54:57;99901.00;;;8.18;100.00
9717;BME280;4897;43.570;27.832;2022-12-18T02:57:33;99905.97;;;8.10;100.00
9717;BME280;4897;43.570;27.832;2022-12-18T03:00:04;99909.19;;;8.01;100.00
9717;BME280;4897;43.570;27.832;2022-12-18T03:02:38;99937.38;;;8.05;100.00
9717;BME280;4897;43.570;27.832;2022-12-18T03:05:11;99928.63;;;8.03;100.00
9717;BME280;4897;43.570;27.832;2022-12-18T03:07:42;99933.66;;;7.93;100.00
9717;BME280;4897;43.570;27.832;2022-12-18T03:10:13;99940.00;;;7.91;100.00
9717;BME280;4897;43.570;27.832;2022-12-18T03:12:45;99868.97;;;7.49;100.00
9717;BME280;4897;43.570;27.832;2022-12-18T03:15:16;99948.00;;;7.91;100.00
9717;BME280;4897;43.570;27.832;2022-12-18T03:17:50;99959.41;;;7.93;100.00
9717;BME280;4897;43.570;27.832;2022-12-18T03:20:20;99966.63;;;7.91;100.00
9717;BME280;4897;43.570;27.832;2022-12-18T03:22:51;99978.66;;;7.98;100.00
9717;BME280;4897;43.570;27.832;2022-12-18T03:25:20;99982.50;;;7.78;100.00
9717;BME280;4897;43.570;27.832;2022-12-18T03:27:53;99986.03;;;7.79;100.00
9717;BME280;4897;43.570;27.832;2022-12-18T03:30:22;99980.84;;;7.62;100.00
9717;BME280;4897;43.570;27.832;2022-12-18T03:32:53;99989.44;;;7.67;100.00
9717;BME280;4897;43.570;27.832;2022-12-18T03:35:26;99998.34;;;7.66;100.00
9717;BME280;4897;43.570;27.832;2022-12-18T03:37:55;100005.94;;;7.58;100.00
9717;BME280;4897;43.570;27.832;2022-12-18T03:40:27;100021.19;;;7.70;100.00
9717;BME280;4897;43.570;27.832;2022-12-18T03:43:02;100040.38;;;7.61;100.00
9717;BME280;4897;43.570;27.832;2022-12-18T03:45:34;100031.53;;;7.60;100.00
9717;BME280;4897;43.570;27.832;2022-12-18T03:48:07;100046.47;;;7.63;100.00
9717;BME280;4897;43.570;27.832;2022-12-18T03:50:41;100049.66;;;7.54;100.00
9717;BME280;4897;43.570;27.832;2022-12-18T03:53:20;100033.13;;;7.33;100.00
9717;BME280;4897;43.570;27.832;2022-12-18T03:55:51;100054.72;;;7.43;100.00
9717;BME280;4897;43.570;27.832;2022-12-18T03:58:23;100043.97;;;7.30;100.00
9717;BME280;4897;43.570;27.832;2022-12-18T04:00:53;100051.16;;;7.28;100.00
9717;BME280;4897;43.570;27.832;2022-12-18T04:03:23;100051.44;;;7.23;100.00
9717;BME280;4897;43.570;27.832;2022-12-18T04:05:52;100042.25;;;7.13;100.00
9717;BME280;4897;43.570;27.832;2022-12-18T04:08:21;100040.47;;;6.98;100.00
9717;BME280;4897;43.570;27.832;2022-12-18T04:10:49;100042.94;;;7.01;100.00
9717;BME280;4897;43.570;27.832;2022-12-18T04:13:23;100049.47;;;6.96;100.00
9717;BME280;4897;43.570;27.832;2022-12-18T04:15:50;100048.53;;;6.81;100.00
9717;BME280;4897;43.570;27.832;2022-12-18T04:18:17;100059.25;;;6.95;100.00
9717;BME280;4897;43.570;27.832;2022-12-18T04:20:44;100015.31;;;6.57;100.00
9717;BME280;4897;43.570;27.832;2022-12-18T04:23:11;100071.75;;;6.78;100.00
9717;BME280;4897;43.570;27.832;2022-12-18T04:25:38;100071.81;;;6.76;100.00
9717;BME280;4897;43.570;27.832;2022-12-18T04:28:05;100073.38;;;6.80;100.00
9717;BME280;4897;43.570;27.832;2022-12-18T04:30:33;100083.41;;;6.75;100.00
9717;BME280;4897;43.570;27.832;2022-12-18T04:33:00;100096.09;;;6.70;100.00
9717;BME280;4897;43.570;27.832;2022-12-18T04:35:27;100089.41;;;6.63;100.00
9717;BME280;4897;43.570;27.832;2022-12-18T04:37:54;100097.63;;;6.59;100.00
9717;BME280;4897;43.570;27.832;2022-12-18T04:40:20;100101.38;;;6.55;100.00
9717;BME280;4897;43.570;27.832;2022-12-18T04:42:47;100106.50;;;6.42;100.00
9717;BME280;4897;43.570;27.832;2022-12-18T04:45:14;100125.69;;;6.47;100.00
9717;BME280;4897;43.570;27.832;2022-12-18T04:47:42;100132.88;;;6.45;100.00
9717;BME280;4897;43.570;27.832;2022-12-18T04:50:09;100115.13;;;6.30;100.00
9717;BME280;4897;43.570;27.832;2022-12-18T04:52:36;100121.34;;;6.29;100.00
9717;BME280;4897;43.570;27.832;2022-12-18T04:55:03;100136.34;;;6.30;100.00
9717;BME280;4897;43.570;27.832;2022-12-18T04:57:30;99981.84;;;5.21;100.00
9717;BME280;4897;43.570;27.832;2022-12-18T04:59:57;100065.19;;;5.68;100.00
9717;BME280;4897;43.570;27.832;2022-12-18T05:02:24;100144.63;;;6.07;100.00
9717;BME280;4897;43.570;27.832;2022-12-18T05:04:52;100141.34;;;6.02;100.00
9717;BME280;4897;43.570;27.832;2022-12-18T05:07:19;100117.06;;;5.92;100.00
9717;BME280;4897;43.570;27.832;2022-12-18T05:09:46;100160.16;;;5.97;100.00
9717;BME280;4897;43.570;27.832;2022-12-18T05:12:13;100155.72;;;5.98;100.00
9717;BME280;4897;43.570;27.832;2022-12-18T05:14:40;100160.06;;;5.99;100.00
9717;BME280;4897;43.570;27.832;2022-12-18T05:17:06;100147.59;;;5.84;100.00
9717;BME280;4897;43.570;27.832;2022-12-18T05:19:33;100175.03;;;5.83;100.00
9717;BME280;4897;43.570;27.832;2022-12-18T05:22:01;100171.50;;;5.65;100.00
9717;BME280;4897;43.570;27.832;2022-12-18T05:24:28;100154.31;;;5.72;100.00
9717;BME280;4897;43.570;27.832;2022-12-18T05:26:56;100146.53;;;5.69;100.00
9717;BME280;4897;43.570;27.832;2022-12-18T05:29:22;100175.03;;;5.83;100.00
9717;BME280;4897;43.570;27.832;2022-12-18T05:31:49;100177.66;;;5.83;100.00
9717;BME280;4897;43.570;27.832;2022-12-18T05:34:16;100191.69;;;5.67;100.00
9717;BME280;4897;43.570;27.832;2022-12-18T05:36:43;100174.84;;;5.68;100.00
9717;BME280;4897;43.570;27.832;2022-12-18T05:39:12;100171.94;;;5.56;100.00
9717;BME280;4897;43.570;27.832;2022-12-18T05:41:38;100155.88;;;5.40;100.00
9717;BME280;4897;43.570;27.832;2022-12-18T05:44:05;100162.25;;;5.36;100.00
9717;BME280;4897;43.570;27.832;2022-12-18T05:46:32;100193.56;;;5.65;100.00
9717;BME280;4897;43.570;27.832;2022-12-18T05:48:59;100141.81;;;5.38;100.00
9717;BME280;4897;43.570;27.832;2022-12-18T05:51:26;100199.91;;;5.63;100.00
9717;BME280;4897;43.570;27.832;2022-12-18T05:53:54;100104.47;;;4.88;100.00
9717;BME280;4897;43.570;27.832;2022-12-18T05:56:22;100215.53;;;5.50;100.00
9717;BME280;4897;43.570;27.832;2022-12-18T05:58:51;100222.19;;;5.40;100.00
9717;BME280;4897;43.570;27.832;2022-12-18T06:01:21;100229.78;;;5.29;100.00
9717;BME280;4897;43.570;27.832;2022-12-18T06:03:48;100260.84;;;5.27;100.00
9717;BME280;4897;43.570;27.832;2022-12-18T06:06:16;100245.75;;;5.28;100.00
9717;BME280;4897;43.570;27.832;2022-12-18T06:08:43;100252.38;;;5.38;100.00
9717;BME280;4897;43.570;27.832;2022-12-18T06:11:10;100253.66;;;5.29;100.00
9717;BME280;4897;43.570;27.832;2022-12-18T06:13:39;100260.69;;;5.30;100.00
9717;BME280;4897;43.570;27.832;2022-12-18T06:16:06;100216.75;;;4.86;100.00
9717;BME280;4897;43.570;27.832;2022-12-18T06:18:33;100286.00;;;5.37;100.00
9717;BME280;4897;43.570;27.832;2022-12-18T06:21:00;100297.22;;;5.42;100.00
9717;BME280;4897;43.570;27.832;2022-12-18T06:23:27;100304.34;;;5.42;100.00
9717;BME280;4897;43.570;27.832;2022-12-18T06:25:54;100315.38;;;5.33;100.00
9717;BME280;4897;43.570;27.832;2022-12-18T06:28:21;100226.38;;;4.88;100.00
9717;BME280;4897;43.570;27.832;2022-12-18T06:30:49;100319.00;;;5.30;100.00
9717;BME280;4897;43.570;27.832;2022-12-18T06:33:16;100313.06;;;5.25;100.00
9717;BME280;4897;43.570;27.832;2022-12-18T06:35:43;100319.00;;;5.30;100.00
9717;BME280;4897;43.570;27.832;2022-12-18T06:38:10;100303.25;;;5.27;100.00
9717;BME280;4897;43.570;27.832;2022-12-18T06:40:37;100322.88;;;5.23;100.00
9717;BME280;4897;43.570;27.832;2022-12-18T06:43:05;100297.31;;;5.02;100.00
9717;BME280;4897;43.570;27.832;2022-12-18T06:45:33;100325.91;;;5.34;100.00
9717;BME280;4897;43.570;27.832;2022-12-18T06:48:01;100320.00;;;5.28;100.00
9717;BME280;4897;43.570;27.832;2022-12-18T06:50:28;100333.06;;;5.32;100.00
9717;BME280;4897;43.570;27.832;2022-12-18T06:52:55;100324.41;;;5.29;100.00
9717;BME280;4897;43.570;27.832;2022-12-18T06:55:22;100329.53;;;5.52;100.00
9717;BME280;4897;43.570;27.832;2022-12-18T06:57:49;100331.78;;;5.41;100.00
9717;BME280;4897;43.570;27.832;2022-12-18T07:00:16;100338.84;;;5.42;100.00
9717;BME280;4897;43.570;27.832;2022-12-18T07:02:43;100327.34;;;5.41;100.00
9717;BME280;4897;43.570;27.832;2022-12-18T07:05:11;100329.34;;;5.36;100.00
9717;BME280;4897;43.570;27.832;2022-12-18T07:07:38;100308.41;;;5.30;100.00
9717;BME280;4897;43.570;27.832;2022-12-18T07:10:05;100335.53;;;5.55;100.00
9717;BME280;4897;43.570;27.832;2022-12-18T07:12:32;100348.47;;;5.44;100.00
9717;BME280;4897;43.570;27.832;2022-12-18T07:14:59;100365.09;;;5.48;100.00
9717;BME280;4897;43.570;27.832;2022-12-18T07:17:26;100352.69;;;5.28;100.00
9717;BME280;4897;43.570;27.832;2022-12-18T07:19:53;100371.25;;;5.48;100.00
9717;BME280;4897;43.570;27.832;2022-12-18T07:22:21;100378.81;;;5.37;100.00
9717;BME280;4897;43.570;27.832;2022-12-18T07:24:48;100390.16;;;5.41;100.00
9717;BME280;4897;43.570;27.832;2022-12-18T07:27:15;100397.38;;;5.37;100.00
9717;BME280;4897;43.570;27.832;2022-12-18T07:29:42;100413.16;;;5.40;100.00
9717;BME280;4897;43.570;27.832;2022-12-18T07:32:09;100412.25;;;5.41;100.00
9717;BME280;4897;43.570;27.832;2022-12-18T07:34:35;100417.66;;;5.38;100.00
9717;BME280;4897;43.570;27.832;2022-12-18T07:37:02;100422.25;;;5.35;100.00
9717;BME280;4897;43.570;27.832;2022-12-18T07:39:31;100445.47;;;5.30;100.00
9717;BME280;4897;43.570;27.832;2022-12-18T07:41:58;100434.13;;;5.46;100.00
9717;BME280;4897;43.570;27.832;2022-12-18T07:44:42;100420.28;;;5.40;100.00
9717;BME280;4897;43.570;27.832;2022-12-18T07:47:09;100440.94;;;5.52;100.00
9717;BME280;4897;43.570;27.832;2022-12-18T07:49:36;100430.53;;;5.47;100.00
9717;BME280;4897;43.570;27.832;2022-12-18T07:52:03;100455.13;;;5.51;100.00
9717;BME280;4897;43.570;27.832;2022-12-18T07:54:31;100438.94;;;5.57;100.00
9717;BME280;4897;43.570;27.832;2022-12-18T07:56:58;100446.41;;;5.67;100.00
9717;BME280;4897;43.570;27.832;2022-12-18T07:59:26;100451.16;;;5.61;100.00
9717;BME280;4897;43.570;27.832;2022-12-18T08:01:52;100458.91;;;5.65;100.00
9717;BME280;4897;43.570;27.832;2022-12-18T08:04:19;100438.22;;;5.53;100.00
9717;BME280;4897;43.570;27.832;2022-12-18T08:06:46;100474.53;;;5.72;100.00
9717;BME280;4897;43.570;27.832;2022-12-18T08:09:13;100457.50;;;5.57;100.00
9717;BME280;4897;43.570;27.832;2022-12-18T08:11:41;100463.50;;;5.62;100.00
9717;BME280;4897;43.570;27.832;2022-12-18T08:14:09;100454.63;;;5.63;100.00
9717;BME280;4897;43.570;27.832;2022-12-18T08:16:36;100444.19;;;5.58;100.00
9717;BME280;4897;43.570;27.832;2022-12-18T08:19:03;100454.25;;;5.71;100.00
9717;BME280;4897;43.570;27.832;2022-12-18T08:21:31;100479.72;;;5.75;100.00
9717;BME280;4897;43.570;27.832;2022-12-18T08:23:59;100459.56;;;5.71;100.00
9717;BME280;4897;43.570;27.832;2022-12-18T08:26:29;100456.00;;;5.92;100.00
9717;BME280;4897;43.570;27.832;2022-12-18T08:28:58;100447.84;;;6.15;100.00
9717;BME280;4897;43.570;27.832;2022-12-18T08:31:27;100476.09;;;6.34;100.00
9717;BME280;4897;43.570;27.832;2022-12-18T08:33:55;100465.25;;;6.02;100.00
9717;BME280;4897;43.570;27.832;2022-12-18T08:36:23;100481.25;;;6.00;100.00
9717;BME280;4897;43.570;27.832;2022-12-18T08:38:50;100481.25;;;6.00;100.00
9717;BME280;4897;43.570;27.832;2022-12-18T08:41:17;100472.72;;;5.94;100.00
9717;BME280;4897;43.570;27.832;2022-12-18T08:43:44;100478.53;;;6.02;100.00
9717;BME280;4897;43.570;27.832;2022-12-18T08:46:34;100414.84;;;5.61;100.00
9717;BME280;4897;43.570;27.832;2022-12-18T08:49:02;100485.00;;;6.15;100.00
9717;BME280;4897;43.570;27.832;2022-12-18T08:51:29;100474.41;;;6.15;100.00
9717;BME280;4897;43.570;27.832;2022-12-18T08:53:56;100472.53;;;6.35;100.00
9717;BME280;4897;43.570;27.832;2022-12-18T08:56:23;100459.59;;;6.28;100.00
9717;BME280;4897;43.570;27.832;2022-12-18T08:58:51;100458.88;;;6.43;100.00
9717;BME280;4897;43.570;27.832;2022-12-18T09:01:19;100471.66;;;6.54;100.00
9717;BME280;4897;43.570;27.832;2022-12-18T09:03:47;100462.56;;;6.59;100.00
9717;BME280;4897;43.570;27.832;2022-12-18T09:06:15;100446.59;;;6.59;100.00
9717;BME280;4897;43.570;27.832;2022-12-18T09:08:42;100466.19;;;6.75;100.00
9717;BME280;4897;43.570;27.832;2022-12-18T09:11:13;100459.72;;;6.62;100.00
9717;BME280;4897;43.570;27.832;2022-12-18T09:13:40;100431.19;;;6.30;100.00
9717;BME280;4897;43.570;27.832;2022-12-18T09:16:07;100472.13;;;6.44;100.00
9717;BME280;4897;43.570;27.832;2022-12-18T09:18:35;100476.78;;;6.39;100.00
9717;BME280;4897;43.570;27.832;2022-12-18T09:21:09;100469.22;;;6.30;100.00
9717;BME280;4897;43.570;27.832;2022-12-18T09:23:37;100465.84;;;6.08;100.00
9717;BME280;4897;43.570;27.832;2022-12-18T09:26:04;100484.72;;;6.21;100.00
9717;BME280;4897;43.570;27.832;2022-12-18T09:28:31;100474.81;;;6.24;100.00
9717;BME280;4897;43.570;27.832;2022-12-18T09:30:58;100469.22;;;6.30;100.00
9717;BME280;4897;43.570;27.832;2022-12-18T09:33:24;100471.16;;;6.27;100.00
9717;BME280;4897;43.570;27.832;2022-12-18T09:35:51;100477.28;;;6.29;100.00
9717;BME280;4897;43.570;27.832;2022-12-18T09:38:19;100466.13;;;6.21;100.00
9717;BME280;4897;43.570;27.832;2022-12-18T09:40:49;100477.28;;;6.29;100.00
9717;BME280;4897;43.570;27.832;2022-12-18T09:43:19;100464.66;;;6.34;100.00
9717;BME280;4897;43.570;27.832;2022-12-18T09:45:51;100482.94;;;6.21;100.00
9717;BME280;4897;43.570;27.832;2022-12-18T09:48:23;100487.50;;;6.18;100.00
9717;BME280;4897;43.570;27.832;2022-12-18T09:50:55;100491.25;;;6.14;100.00
9717;BME280;4897;43.570;27.832;2022-12-18T09:53:29;100494.50;;;6.39;100.00
9717;BME280;4897;43.570;27.832;2022-12-18T09:56:00;100488.25;;;6.21;100.00
9717;BME280;4897;43.570;27.832;2022-12-18T09:58:31;100484.84;;;6.18;100.00
9717;BME280;4897;43.570;27.832;2022-12-18T10:00:59;100478.19;;;6.28;100.00
9717;BME280;4897;43.570;27.832;2022-12-18T10:03:26;100483.75;;;6.42;100.00
9717;BME280;4897;43.570;27.832;2022-12-18T10:05:59;100491.63;;;6.43;100.00
9717;BME280;4897;43.570;27.832;2022-12-18T10:08:35;100500.97;;;6.33;100.00
9717;BME280;4897;43.570;27.832;2022-12-18T10:11:28;100486.31;;;6.25;100.00
9717;BME280;4897;43.570;27.832;2022-12-18T10:14:01;100524.72;;;6.36;100.00
9717;BME280;4897;43.570;27.832;2022-12-18T10:16:36;100506.19;;;6.35;100.00
9717;BME280;4897;43.570;27.832;2022-12-18T10:19:20;100493.78;;;6.54;100.00
9717;BME280;4897;43.570;27.832;2022-12-18T10:21:57;100500.09;;;6.52;100.00
9717;BME280;4897;43.570;27.832;2022-12-18T10:24:36;100411.75;;;6.11;100.00
9717;BME280;4897;43.570;27.832;2022-12-18T10:27:12;100493.38;;;6.63;100.00
9717;BME280;4897;43.570;27.832;2022-12-18T10:29:42;100497.78;;;6.81;100.00
9717;BME280;4897;43.570;27.832;2022-12-18T10:32:14;100483.06;;;6.74;100.00
9717;BME280;4897;43.570;27.832;2022-12-18T10:34:45;100487.50;;;7.09;100.00
9717;BME280;4897;43.570;27.832;2022-12-18T10:37:15;100485.81;;;7.08;100.00
9717;BME280;4897;43.570;27.832;2022-12-18T10:39:45;100486.16;;;7.01;100.00
9717;BME280;4897;43.570;27.832;2022-12-18T10:42:17;100492.00;;;7.26;100.00
9717;BME280;4897;43.570;27.832;2022-12-18T10:44:44;100487.53;;;7.78;100.00
9717;BME280;4897;43.570;27.832;2022-12-18T10:47:14;100487.78;;;8.06;100.00
9717;BME280;4897;43.570;27.832;2022-12-18T10:49:47;100459.81;;;7.82;100.00
9717;BME280;4897;43.570;27.832;2022-12-18T10:52:18;100448.09;;;7.52;100.00
9717;BME280;4897;43.570;27.832;2022-12-18T10:54:52;100496.09;;;7.67;100.00
9717;BME280;4897;43.570;27.832;2022-12-18T10:57:34;100480.50;;;7.43;100.00
9717;BME280;4897;43.570;27.832;2022-12-18T11:00:22;100499.34;;;7.55;100.00
9717;BME280;4897;43.570;27.832;2022-12-18T11:02:49;100501.09;;;7.39;100.00
9717;BME280;4897;43.570;27.832;2022-12-18T11:05:25;100509.63;;;7.46;100.00
9717;BME280;4897;43.570;27.832;2022-12-18T11:07:52;100495.53;;;7.44;100.00
9717;BME280;4897;43.570;27.832;2022-12-18T11:10:28;100501.63;;;7.46;100.00
9717;BME280;4897;43.570;27.832;2022-12-18T11:12:55;100499.31;;;7.57;100.00
9717;BME280;4897;43.570;27.832;2022-12-18T11:15:26;100504.94;;;7.51;100.00
9717;BME280;4897;43.570;27.832;2022-12-18T11:17:55;100507.38;;;7.38;100.00
9717;BME280;4897;43.570;27.832;2022-12-18T11:20:29;100508.34;;;7.18;100.00
9717;BME280;4897;43.570;27.832;2022-12-18T11:22:59;100439.78;;;6.89;100.00
9717;BME280;4897;43.570;27.832;2022-12-18T11:25:28;100463.28;;;7.33;100.00
9717;BME280;4897;43.570;27.832;2022-12-18T11:27:58;100506.97;;;7.46;100.00
9717;BME280;4897;43.570;27.832;2022-12-18T11:30:27;100499.38;;;7.38;100.00
9717;BME280;4897;43.570;27.832;2022-12-18T11:32:59;100509.75;;;7.43;100.00
9717;BME280;4897;43.570;27.832;2022-12-18T11:35:44;100514.72;;;7.50;100.00
9717;BME280;4897;43.570;27.832;2022-12-18T11:38:19;100521.38;;;7.76;100.00
9717;BME280;4897;43.570;27.832;2022-12-18T11:40:54;100518.53;;;7.62;100.00
9717;BME280;4897;43.570;27.832;2022-12-18T11:43:27;100522.16;;;7.61;100.00
9717;BME280;4897;43.570;27.832;2022-12-18T11:45:59;100535.06;;;7.85;100.00
9717;BME280;4897;43.570;27.832;2022-12-18T11:48:33;100520.97;;;8.00;100.00
9717;BME280;4897;43.570;27.832;2022-12-18T11:51:05;100526.41;;;8.32;100.00
9717;BME280;4897;43.570;27.832;2022-12-18T11:53:36;100519.19;;;8.34;100.00
9717;BME280;4897;43.570;27.832;2022-12-18T11:56:24;100526.75;;;8.24;100.00
9717;BME280;4897;43.570;27.832;2022-12-18T11:59:00;100529.50;;;8.07;100.00
9717;BME280;4897;43.570;27.832;2022-12-18T12:01:39;100534.97;;;7.87;100.00
9717;BME280;4897;43.570;27.832;2022-12-18T12:07:18;100532.44;;;8.01;100.00
9717;BME280;4897;43.570;27.832;2022-12-18T12:09:54;100540.47;;;7.84;100.00
9717;BME280;4897;43.570;27.832;2022-12-18T12:12:34;100532.72;;;7.79;100.00
9717;BME280;4897;43.570;27.832;2022-12-18T12:15:19;100538.59;;;7.86;100.00
9717;BME280;4897;43.570;27.832;2022-12-18T12:17:52;100548.75;;;7.95;100.00
9717;BME280;4897;43.570;27.832;2022-12-18T12:20:23;100514.31;;;7.58;100.00
9717;BME280;4897;43.570;27.832;2022-12-18T12:22:57;100553.56;;;7.71;100.00
9717;BME280;4897;43.570;27.832;2022-12-18T12:25:33;100547.19;;;7.91;100.00
9717;BME280;4897;43.570;27.832;2022-12-18T12:28:13;100536.53;;;7.91;100.00
9717;BME280;4897;43.570;27.832;2022-12-18T12:30:51;100542.41;;;7.97;100.00
9717;BME280;4897;43.570;27.832;2022-12-18T12:33:31;100521.75;;;7.85;100.00
9717;BME280;4897;43.570;27.832;2022-12-18T12:36:06;100543.94;;;7.86;100.00
9717;BME280;4897;43.570;27.832;2022-12-18T12:38:40;100551.81;;;7.87;100.00
9717;BME280;4897;43.570;27.832;2022-12-18T12:41:13;100552.97;;;7.99;100.00
9717;BME280;4897;43.570;27.832;2022-12-18T12:43:59;100534.59;;;7.94;100.00
9717;BME280;4897;43.570;27.832;2022-12-18T12:46:30;100536.84;;;7.85;100.00
9717;BME280;4897;43.570;27.832;2022-12-18T12:49:00;100554.41;;;7.89;100.00
9717;BME280;4897;43.570;27.832;2022-12-18T12:51:33;100568.22;;;7.80;100.00
9717;BME280;4897;43.570;27.832;2022-12-18T12:54:03;100580.88;;;7.58;100.00
9717;BME280;4897;43.570;27.832;2022-12-18T12:56:45;100573.13;;;7.70;100.00
9717;BME280;4897;43.570;27.832;2022-12-18T12:59:24;100574.41;;;7.63;100.00
9717;BME280;4897;43.570;27.832;2022-12-18T13:01:58;100544.34;;;7.43;100.00
9717;BME280;4897;43.570;27.832;2022-12-18T13:04:31;100577.28;;;7.59;100.00
9717;BME280;4897;43.570;27.832;2022-12-18T13:07:08;100595.81;;;7.60;100.00
9717;BME280;4897;43.570;27.832;2022-12-18T13:12:58;100596.75;;;7.42;100.00
9717;BME280;4897;43.570;27.832;2022-12-18T13:15:31;100598.63;;;7.40;100.00
9717;BME280;4897;43.570;27.832;2022-12-18T13:18:19;100573.28;;;7.14;100.00
9717;BME280;4897;43.570;27.832;2022-12-18T13:20:48;100603.78;;;7.43;100.00
9717;BME280;4897;43.570;27.832;2022-12-18T13:23:30;100605.28;;;7.49;100.00
9717;BME280;4897;43.570;27.832;2022-12-18T13:25:58;100598.63;;;7.40;100.00